createdAt,value
2019-03-03T00:01:25.127Z,99945.02
2019-03-03T00:03:58.564Z,99939.01
2019-03-03T00:06:31.925Z,99936.45
2019-03-03T00:09:06.528Z,99929.67
2019-03-03T00:11:39.941Z,99924.31
2019-03-03T00:14:13.313Z,99929.43
2019-03-03T00:16:46.737Z,99922.45
2019-03-03T00:19:20.159Z,99925.17
2019-03-03T00:21:53.544Z,99926.03
2019-03-03T00:24:27.411Z,99917.42
2019-03-03T00:27:00.878Z,99914.42
2019-03-03T00:29:34.377Z,99920.64
2019-03-03T00:32:08.606Z,99918.50
2019-03-03T00:34:42.019Z,99915.59
2019-03-03T00:37:17.057Z,99914.69
2019-03-03T00:39:52.146Z,99908.14
2019-03-03T00:42:33.348Z,99919.86
2019-03-03T00:45:17.292Z,99911.35
2019-03-03T00:47:55.284Z,99906.30
2019-03-03T00:50:45.310Z,99907.22
2019-03-03T00:53:32.114Z,99916.48
2019-03-03T00:56:19.107Z,99914.68
2019-03-03T00:58:59.624Z,99908.73
2019-03-03T01:01:34.699Z,99908.17
2019-03-03T01:04:09.862Z,99901.13
2019-03-03T01:07:03.003Z,99901.70
2019-03-03T01:09:54.146Z,99900.04
2019-03-03T01:15:38.589Z,99886.45
2019-03-03T01:18:28.991Z,99887.46
2019-03-03T01:21:03.980Z,99878.27
2019-03-03T01:23:45.177Z,99877.59
2019-03-03T01:26:18.732Z,99873.27
2019-03-03T01:28:52.244Z,99866.60
2019-03-03T01:31:25.618Z,99863.92
2019-03-03T01:33:59.118Z,99865.16
2019-03-03T01:36:32.471Z,99864.52
2019-03-03T01:39:06.399Z,99856.38
2019-03-03T01:41:39.827Z,99857.43
2019-03-03T01:44:13.270Z,99860.82
2019-03-03T01:46:46.690Z,99853.96
2019-03-03T01:49:20.192Z,99859.80
2019-03-03T01:51:53.611Z,99854.87
2019-03-03T01:54:27.050Z,99851.36
2019-03-03T01:57:00.460Z,99850.65
2019-03-03T01:59:33.917Z,99855.24
2019-03-03T02:02:07.362Z,99848.95
2019-03-03T02:04:40.711Z,99844.74
2019-03-03T02:07:14.034Z,99840.41
2019-03-03T02:09:47.407Z,99832.02
2019-03-03T02:12:20.798Z,99816.70
2019-03-03T02:14:54.171Z,99805.16
2019-03-03T02:17:27.623Z,99804.27
2019-03-03T02:20:01.118Z,99801.02
2019-03-03T02:22:34.483Z,99800.48
2019-03-03T02:25:10.461Z,99798.64
2019-03-03T02:27:44.046Z,99788.92
2019-03-03T02:30:21.701Z,99780.47
2019-03-03T02:32:55.141Z,99783.81
2019-03-03T02:35:28.581Z,99776.38
2019-03-03T02:38:02.076Z,99778.93
2019-03-03T02:40:35.558Z,99773.28
2019-03-03T02:43:09.060Z,99775.02
2019-03-03T02:45:42.498Z,99776.67
2019-03-03T02:48:15.974Z,99762.91
2019-03-03T02:50:49.444Z,99767.83
2019-03-03T02:53:22.979Z,99755.05
2019-03-03T02:55:56.478Z,99758.24
2019-03-03T02:58:29.836Z,99754.97
2019-03-03T03:01:10.688Z,99756.30
2019-03-03T03:03:44.035Z,99751.70
2019-03-03T03:06:19.163Z,99747.16
2019-03-03T03:09:09.342Z,99744.72
2019-03-03T03:11:47.128Z,99744.84
2019-03-03T03:14:33.948Z,99743.03
2019-03-03T03:17:15.279Z,99733.12
2019-03-03T03:20:06.693Z,99726.36
2019-03-03T03:22:50.366Z,99725.25
2019-03-03T03:25:43.825Z,99710.95
2019-03-03T03:28:19.145Z,99731.09
2019-03-03T03:31:00.140Z,99710.87
2019-03-03T03:33:43.965Z,99704.75
2019-03-03T03:36:24.872Z,99697.59
2019-03-03T03:39:05.973Z,99686.04
2019-03-03T03:41:40.934Z,99686.25
2019-03-03T03:44:15.915Z,99680.66
2019-03-03T03:46:53.797Z,99683.02
2019-03-03T03:49:40.829Z,99678.84
2019-03-03T03:52:18.553Z,99676.09
2019-03-03T03:55:11.742Z,99661.11
2019-03-03T03:57:46.894Z,99666.43
2019-03-03T04:00:22.000Z,99660.50
2019-03-03T04:02:57.106Z,99654.25
2019-03-03T04:05:38.083Z,99644.06
2019-03-03T04:08:13.213Z,99641.52
2019-03-03T04:10:48.267Z,99638.73
2019-03-03T04:13:26.233Z,99649.38
2019-03-03T04:16:10.674Z,99649.75
2019-03-03T04:18:51.605Z,99640.61
2019-03-03T04:21:26.604Z,99629.13
2019-03-03T04:24:01.649Z,99624.12
2019-03-03T04:26:45.489Z,99617.64
2019-03-03T04:29:20.530Z,99624.45
2019-03-03T04:31:58.528Z,99614.60
2019-03-03T04:34:51.902Z,99609.06
2019-03-03T04:37:29.791Z,99608.84
2019-03-03T04:40:08.165Z,99607.78
2019-03-03T04:45:41.729Z,99594.59
2019-03-03T04:48:19.652Z,99595.25
2019-03-03T04:50:57.165Z,99600.31
2019-03-03T04:53:48.432Z,99596.99
2019-03-03T04:56:32.265Z,99587.81
2019-03-03T04:59:07.268Z,99596.83
2019-03-03T05:01:54.268Z,99584.93
2019-03-03T05:07:26.446Z,99570.83
2019-03-03T05:10:04.174Z,99577.70
2019-03-03T05:12:54.602Z,99578.69
2019-03-03T05:15:29.658Z,99572.80
2019-03-03T05:18:04.750Z,99568.20
2019-03-03T05:20:51.151Z,99563.98
2019-03-03T05:23:24.611Z,99568.80
2019-03-03T05:25:58.086Z,99573.81
2019-03-03T05:28:31.611Z,99572.08
2019-03-03T05:31:05.083Z,99567.89
2019-03-03T05:33:38.600Z,99567.45
2019-03-03T05:36:12.029Z,99561.27
2019-03-03T05:38:45.464Z,99567.80
2019-03-03T05:41:18.947Z,99563.16
2019-03-03T05:43:52.421Z,99562.11
2019-03-03T05:46:25.894Z,99559.02
2019-03-03T05:48:59.784Z,99561.20
2019-03-03T05:51:34.691Z,99553.56
2019-03-03T05:54:09.747Z,99545.34
2019-03-03T05:56:43.221Z,99549.69
2019-03-03T05:59:16.588Z,99536.95
2019-03-03T06:01:50.089Z,99542.64
2019-03-03T06:04:23.587Z,99539.39
2019-03-03T06:06:57.194Z,99546.17
2019-03-03T06:09:30.685Z,99541.05
2019-03-03T06:12:04.278Z,99539.13
2019-03-03T06:14:37.621Z,99550.16
2019-03-03T06:17:10.985Z,99541.01
2019-03-03T06:19:44.498Z,99546.36
2019-03-03T06:22:17.842Z,99546.86
2019-03-03T06:24:51.509Z,99541.27
2019-03-03T06:27:24.980Z,99551.70
2019-03-03T06:29:58.625Z,99542.59
2019-03-03T06:32:32.467Z,99546.13
2019-03-03T06:35:08.392Z,99550.89
2019-03-03T06:37:41.800Z,99554.05
2019-03-03T06:40:15.663Z,99550.44
2019-03-03T06:42:49.108Z,99549.09
2019-03-03T06:45:22.533Z,99553.86
2019-03-03T06:47:55.977Z,99554.95
2019-03-03T06:50:29.451Z,99553.48
2019-03-03T06:53:02.933Z,99554.27
2019-03-03T06:55:36.406Z,99559.77
2019-03-03T06:58:09.987Z,99547.00
2019-03-03T07:00:43.423Z,99550.14
2019-03-03T07:03:16.891Z,99545.20
2019-03-03T07:05:50.294Z,99543.05
2019-03-03T07:08:23.723Z,99542.44
2019-03-03T07:10:57.265Z,99551.80
2019-03-03T07:13:30.710Z,99538.38
2019-03-03T07:16:04.350Z,99537.69
2019-03-03T07:18:37.775Z,99542.73
2019-03-03T07:21:11.346Z,99543.77
2019-03-03T07:23:44.922Z,99541.77
2019-03-03T07:26:18.496Z,99538.70
2019-03-03T07:28:51.940Z,99538.11
2019-03-03T07:31:25.316Z,99539.30
2019-03-03T07:33:58.738Z,99539.52
2019-03-03T07:36:32.213Z,99536.13
2019-03-03T07:39:10.520Z,99538.23
2019-03-03T07:41:43.994Z,99537.56
2019-03-03T07:44:17.453Z,99541.90
2019-03-03T07:46:50.914Z,99538.42
2019-03-03T07:49:24.340Z,99537.55
2019-03-03T07:51:57.790Z,99546.23
2019-03-03T07:54:31.357Z,99548.63
2019-03-03T07:57:04.928Z,99543.27
2019-03-03T07:59:38.443Z,99542.14
2019-03-03T08:02:11.829Z,99542.45
2019-03-03T08:04:45.385Z,99539.39
2019-03-03T08:07:18.882Z,99542.77
2019-03-03T08:09:52.359Z,99542.54
2019-03-03T08:12:25.803Z,99543.75
2019-03-03T08:14:59.357Z,99547.99
2019-03-03T08:17:32.744Z,99543.70
2019-03-03T08:20:31.299Z,99550.91
2019-03-03T08:23:04.767Z,99548.41
2019-03-03T08:25:38.148Z,99547.71
2019-03-03T08:28:11.480Z,99545.33
2019-03-03T08:30:44.856Z,99548.72
2019-03-03T08:33:18.543Z,99554.08
2019-03-03T08:35:52.048Z,99550.95
2019-03-03T08:38:25.455Z,99557.47
2019-03-03T08:40:58.908Z,99553.31
2019-03-03T08:43:42.446Z,99555.69
2019-03-03T08:46:35.728Z,99560.91
2019-03-03T08:49:10.796Z,99565.58
2019-03-03T08:51:48.754Z,99552.08
2019-03-03T08:54:35.620Z,99555.83
2019-03-03T08:57:26.814Z,99558.43
2019-03-03T09:00:01.800Z,99557.02
2019-03-03T09:02:48.555Z,99567.41
2019-03-03T09:05:23.594Z,99556.46
2019-03-03T09:07:58.572Z,99564.94
2019-03-03T09:10:36.093Z,99569.55
2019-03-03T09:13:11.073Z,99569.10
2019-03-03T09:15:48.855Z,99569.33
2019-03-03T09:18:32.921Z,99571.17
2019-03-03T09:21:08.005Z,99566.00
2019-03-03T09:23:42.972Z,99561.24
2019-03-03T09:26:18.092Z,99565.48
2019-03-03T09:29:02.051Z,99561.91
2019-03-03T09:31:52.464Z,99565.08
2019-03-03T09:34:27.510Z,99576.30
2019-03-03T09:37:02.611Z,99578.27
2019-03-03T09:39:43.619Z,99581.97
2019-03-03T09:42:18.727Z,99582.30
2019-03-03T09:45:02.578Z,99583.80
2019-03-03T09:47:40.712Z,99594.06
2019-03-03T09:50:24.520Z,99593.45
2019-03-03T09:53:02.298Z,99588.38
2019-03-03T09:55:37.305Z,99579.73
2019-03-03T09:58:12.404Z,99574.59
2019-03-03T10:00:50.110Z,99578.16
2019-03-03T10:03:25.305Z,99581.03
2019-03-03T10:06:00.366Z,99581.10
2019-03-03T10:08:35.355Z,99569.59
2019-03-03T10:11:13.116Z,99574.92
2019-03-03T10:13:48.407Z,99574.83
2019-03-03T10:16:23.558Z,99572.76
2019-03-03T10:19:07.240Z,99575.06
2019-03-03T10:21:56.228Z,99563.80
2019-03-03T10:24:40.927Z,99569.33
2019-03-03T10:27:16.017Z,99579.34
2019-03-03T10:29:56.971Z,99581.00
2019-03-03T10:32:34.981Z,99571.28
2019-03-03T10:35:16.560Z,99566.78
2019-03-03T10:38:00.505Z,99573.19
2019-03-03T10:40:35.487Z,99575.47
2019-03-03T10:43:19.283Z,99575.09
2019-03-03T10:45:54.331Z,99579.39
2019-03-03T10:48:29.498Z,99570.80
2019-03-03T10:51:07.017Z,99569.87
2019-03-03T10:53:42.079Z,99566.34
2019-03-03T10:56:35.138Z,99564.30
2019-03-03T10:59:12.656Z,99565.52
2019-03-03T11:01:47.636Z,99563.62
2019-03-03T11:04:38.895Z,99557.56
2019-03-03T11:07:13.985Z,99556.83
2019-03-03T11:09:54.813Z,99561.51
2019-03-03T11:12:36.015Z,99561.44
2019-03-03T11:15:18.407Z,99554.11
2019-03-03T11:17:51.327Z,99552.98
2019-03-03T11:20:32.528Z,99556.83
2019-03-03T11:23:07.532Z,99555.61
2019-03-03T11:25:42.502Z,99556.28
2019-03-03T11:28:23.713Z,99547.45
2019-03-03T11:30:57.206Z,99546.76
2019-03-03T11:33:34.678Z,99547.95
2019-03-03T11:36:18.683Z,99546.20
2019-03-03T11:41:56.157Z,99544.50
2019-03-03T11:44:47.616Z,99542.05
2019-03-03T11:47:28.426Z,99544.37
2019-03-03T11:50:03.418Z,99537.16
2019-03-03T11:52:50.541Z,99535.27
2019-03-03T11:55:40.719Z,99535.52
2019-03-03T12:01:27.440Z,99527.81
2019-03-03T12:04:02.448Z,99527.62
2019-03-03T12:06:37.495Z,99525.66
2019-03-03T12:09:29.277Z,99526.64
2019-03-03T12:12:16.358Z,99530.66
2019-03-03T12:14:51.445Z,99526.48
2019-03-03T12:17:35.219Z,99519.05
2019-03-03T12:20:28.816Z,99516.58
2019-03-03T12:23:03.888Z,99512.73
2019-03-03T12:25:41.790Z,99517.66
2019-03-03T12:28:33.034Z,99513.19
2019-03-03T12:31:13.904Z,99499.38
2019-03-03T12:33:48.983Z,99511.03
2019-03-03T12:36:26.810Z,99506.26
2019-03-03T12:39:01.887Z,99510.50
2019-03-03T12:41:39.320Z,99497.87
2019-03-03T12:44:26.371Z,99507.02
2019-03-03T12:47:10.196Z,99496.87
2019-03-03T12:49:45.207Z,99486.53
2019-03-03T12:52:20.363Z,99489.25
2019-03-03T12:54:58.265Z,99488.49
2019-03-03T12:57:36.381Z,99486.44
2019-03-03T13:00:15.493Z,99476.63
2019-03-03T13:03:06.855Z,99486.69
2019-03-03T13:05:47.623Z,99482.06
2019-03-03T13:08:25.562Z,99477.55
2019-03-03T13:11:00.819Z,99477.09
2019-03-03T13:13:38.453Z,99471.33
2019-03-03T13:16:19.441Z,99469.80
2019-03-03T13:18:57.335Z,99469.53
2019-03-03T13:21:32.463Z,99459.42
2019-03-03T13:24:07.614Z,99462.14
2019-03-03T13:26:54.559Z,99459.52
2019-03-03T13:29:29.566Z,99449.87
2019-03-03T13:32:04.586Z,99449.05
2019-03-03T13:34:39.686Z,99447.03
2019-03-03T13:37:14.714Z,99449.77
2019-03-03T13:39:49.791Z,99444.78
2019-03-03T13:42:32.171Z,99438.00
2019-03-03T13:45:09.777Z,99439.39
2019-03-03T13:48:05.641Z,99439.23
2019-03-03T13:50:39.069Z,99429.42
2019-03-03T13:53:12.461Z,99429.53
2019-03-03T13:55:46.810Z,99422.66
2019-03-03T13:58:21.019Z,99421.92
2019-03-03T14:00:54.612Z,99416.44
2019-03-03T14:03:27.993Z,99414.38
2019-03-03T14:06:01.588Z,99406.88
2019-03-03T14:08:34.986Z,99401.34
2019-03-03T14:11:08.514Z,99396.45
2019-03-03T14:13:42.084Z,99390.70
2019-03-03T14:16:15.441Z,99395.07
2019-03-03T14:18:48.843Z,99397.60
2019-03-03T14:21:22.271Z,99386.67
2019-03-03T14:23:57.177Z,99386.70
2019-03-03T14:26:30.804Z,99389.08
2019-03-03T14:29:04.426Z,99378.18
2019-03-03T14:31:37.832Z,99378.90
2019-03-03T14:34:11.607Z,99379.97
2019-03-03T14:36:45.004Z,99377.22
2019-03-03T14:39:18.773Z,99376.14
2019-03-03T14:41:52.173Z,99373.22
2019-03-03T14:44:25.804Z,99371.67
2019-03-03T14:46:59.206Z,99366.80
2019-03-03T14:49:32.754Z,99356.31
2019-03-03T14:52:06.233Z,99359.09
2019-03-03T14:54:39.699Z,99349.73
2019-03-03T14:57:13.201Z,99348.52
2019-03-03T14:59:46.679Z,99350.40
2019-03-03T15:02:20.156Z,99340.95
2019-03-03T15:04:53.715Z,99337.39
2019-03-03T15:07:27.140Z,99336.11
2019-03-03T15:10:00.571Z,99337.69
2019-03-03T15:12:33.981Z,99329.53
2019-03-03T15:15:10.355Z,99331.67
2019-03-03T15:17:43.834Z,99332.49
2019-03-03T15:20:17.513Z,99323.67
2019-03-03T15:22:50.851Z,99325.48
2019-03-03T15:25:24.368Z,99317.42
2019-03-03T15:27:57.809Z,99320.28
2019-03-03T15:30:31.261Z,99316.33
2019-03-03T15:33:04.666Z,99313.70
2019-03-03T15:35:38.216Z,99311.33
2019-03-03T15:38:11.586Z,99312.05
2019-03-03T15:40:45.021Z,99305.14
2019-03-03T15:43:18.590Z,99309.84
2019-03-03T15:45:52.039Z,99298.48
2019-03-03T15:48:25.446Z,99296.41
2019-03-03T15:50:58.830Z,99298.89
2019-03-03T15:53:32.382Z,99295.69
2019-03-03T15:56:07.039Z,99298.78
2019-03-03T15:58:40.975Z,99288.28
2019-03-03T16:01:15.751Z,99284.17
2019-03-03T16:03:49.242Z,99296.31
2019-03-03T16:06:22.668Z,99291.61
2019-03-03T16:08:56.025Z,99294.25
2019-03-03T16:11:29.577Z,99293.78
2019-03-03T16:14:03.060Z,99286.73
2019-03-03T16:16:36.520Z,99273.86
2019-03-03T16:19:10.034Z,99273.67
2019-03-03T16:21:43.493Z,99275.16
2019-03-03T16:24:16.831Z,99269.47
2019-03-03T16:26:50.284Z,99276.64
2019-03-03T16:29:23.690Z,99275.16
2019-03-03T16:31:57.090Z,99264.97
2019-03-03T16:34:30.578Z,99275.29
2019-03-03T16:37:04.020Z,99269.83
2019-03-03T16:39:37.437Z,99269.30
2019-03-03T16:42:10.956Z,99266.73
2019-03-03T16:44:44.364Z,99272.98
2019-03-03T16:47:17.896Z,99256.07
2019-03-03T16:49:51.294Z,99255.48
2019-03-03T16:52:24.665Z,99263.30
2019-03-03T16:54:58.053Z,99273.12
2019-03-03T16:57:31.635Z,99264.95
2019-03-03T17:00:08.186Z,99258.34
2019-03-03T17:02:41.702Z,99254.82
2019-03-03T17:05:20.374Z,99249.75
2019-03-03T17:07:53.819Z,99249.36
2019-03-03T17:10:27.305Z,99244.81
2019-03-03T17:13:00.662Z,99244.88
2019-03-03T17:15:34.274Z,99234.22
2019-03-03T17:18:07.818Z,99237.21
2019-03-03T17:20:41.245Z,99232.41
2019-03-03T17:23:14.818Z,99230.86
2019-03-03T17:25:48.386Z,99224.39
2019-03-03T17:28:21.994Z,99225.53
2019-03-03T17:30:55.412Z,99226.55
2019-03-03T17:33:28.847Z,99214.41
2019-03-03T17:36:02.280Z,99219.31
2019-03-03T17:38:35.828Z,99220.20
2019-03-03T17:41:09.215Z,99217.25
2019-03-03T17:43:42.729Z,99222.45
2019-03-03T17:46:16.147Z,99208.69
2019-03-03T17:48:49.527Z,99217.54
2019-03-03T17:51:22.939Z,99204.84
2019-03-03T17:53:56.323Z,99205.09
2019-03-03T17:56:29.817Z,99201.44
2019-03-03T17:59:03.183Z,99203.23
2019-03-03T18:01:36.601Z,99189.02
2019-03-03T18:04:10.333Z,99201.00
2019-03-03T18:06:44.306Z,99183.13
2019-03-03T18:09:18.080Z,99192.24
2019-03-03T18:11:51.795Z,99193.78
2019-03-03T18:14:25.186Z,99182.72
2019-03-03T18:16:58.559Z,99185.97
2019-03-03T18:19:32.015Z,99174.52
2019-03-03T18:22:05.535Z,99173.08
2019-03-03T18:24:38.953Z,99179.25
2019-03-03T18:27:12.337Z,99178.09
2019-03-03T18:29:45.671Z,99175.56
2019-03-03T18:32:19.039Z,99173.19
2019-03-03T18:34:52.392Z,99172.89
2019-03-03T18:37:25.758Z,99171.88
2019-03-03T18:39:59.088Z,99159.72
2019-03-03T18:42:32.487Z,99158.67
2019-03-03T18:45:08.990Z,99159.31
2019-03-03T18:47:42.488Z,99154.61
2019-03-03T18:50:21.931Z,99155.89
2019-03-03T18:52:55.368Z,99142.08
2019-03-03T18:55:28.875Z,99141.59
2019-03-03T18:58:02.418Z,99146.67
2019-03-03T19:00:35.827Z,99147.67
2019-03-03T19:03:09.264Z,99141.84
2019-03-03T19:05:42.691Z,99140.78
2019-03-03T19:08:16.232Z,99140.95
2019-03-03T19:10:49.650Z,99143.12
2019-03-03T19:13:23.182Z,99137.73
2019-03-03T19:15:56.574Z,99135.56
2019-03-03T19:18:29.974Z,99142.39
2019-03-03T19:21:03.417Z,99134.03
2019-03-03T19:23:36.924Z,99126.23
2019-03-03T19:26:10.378Z,99123.50
2019-03-03T19:28:43.754Z,99124.93
2019-03-03T19:31:17.235Z,99114.98
2019-03-03T19:33:53.365Z,99113.31
2019-03-03T19:36:26.808Z,99108.81
2019-03-03T19:39:00.291Z,99114.77
2019-03-03T19:41:33.671Z,99105.80
2019-03-03T19:44:07.441Z,99114.45
2019-03-03T19:46:40.855Z,99108.94
2019-03-03T19:49:14.361Z,99110.45
2019-03-03T19:51:47.763Z,99105.84
2019-03-03T19:54:21.234Z,99103.10
2019-03-03T19:56:54.629Z,99105.69
2019-03-03T19:59:28.153Z,99091.09
2019-03-03T20:02:01.642Z,99089.74
2019-03-03T20:04:35.041Z,99085.70
2019-03-03T20:07:08.522Z,99089.55
2019-03-03T20:09:41.892Z,99091.20
2019-03-03T20:12:15.232Z,99084.52
2019-03-03T20:14:48.707Z,99077.89
2019-03-03T20:17:22.101Z,99080.58
2019-03-03T20:19:55.530Z,99080.13
2019-03-03T20:22:28.939Z,99076.36
2019-03-03T20:25:02.450Z,99072.26
2019-03-03T20:27:36.478Z,99068.75
2019-03-03T20:30:20.941Z,99065.59
2019-03-03T20:32:54.359Z,99061.86
2019-03-03T20:35:27.801Z,99057.25
2019-03-03T20:38:01.324Z,99055.27
2019-03-03T20:40:34.848Z,99054.51
2019-03-03T20:43:08.203Z,99049.84
2019-03-03T20:45:41.742Z,99044.44
2019-03-03T20:48:15.262Z,99036.72
2019-03-03T20:50:48.717Z,99028.34
2019-03-03T20:53:22.136Z,99031.54
2019-03-03T20:55:55.580Z,99022.29
2019-03-03T20:58:28.960Z,99008.92
2019-03-03T21:01:02.482Z,99003.61
2019-03-03T21:03:35.829Z,99009.16
2019-03-03T21:06:09.580Z,99003.96
2019-03-03T21:08:43.058Z,98994.05
2019-03-03T21:11:16.438Z,98988.55
2019-03-03T21:13:49.885Z,98996.16
2019-03-03T21:16:23.294Z,98984.89
2019-03-03T21:18:56.699Z,98977.09
2019-03-03T21:21:30.161Z,98975.55
2019-03-03T21:24:03.565Z,98970.96
2019-03-03T21:26:37.001Z,98964.99
2019-03-03T21:29:10.483Z,98961.80
2019-03-03T21:31:43.859Z,98951.99
2019-03-03T21:34:17.229Z,98950.79
2019-03-03T21:36:50.592Z,98951.82
2019-03-03T21:39:23.949Z,98946.20
2019-03-03T21:41:57.373Z,98941.80
2019-03-03T21:44:30.758Z,98940.34
2019-03-03T21:47:04.167Z,98929.80
2019-03-03T21:49:37.530Z,98927.16
2019-03-03T21:52:10.959Z,98925.41
2019-03-03T21:54:44.326Z,98926.23
2019-03-03T21:57:17.762Z,98918.17
2019-03-03T21:59:51.210Z,98916.31
2019-03-03T22:02:24.552Z,98921.56
2019-03-03T22:04:57.912Z,98919.06
2019-03-03T22:07:31.363Z,98914.02
2019-03-03T22:10:07.223Z,98911.56
2019-03-03T22:12:40.686Z,98910.06
2019-03-03T22:15:14.808Z,98901.20
2019-03-03T22:17:48.166Z,98896.36
2019-03-03T22:20:21.663Z,98887.73
2019-03-03T22:22:55.167Z,98896.53
2019-03-03T22:25:28.695Z,98891.36
2019-03-03T22:28:02.098Z,98886.77
2019-03-03T22:30:35.622Z,98895.97
2019-03-03T22:33:09.030Z,98897.72
2019-03-03T22:35:42.478Z,98900.09
2019-03-03T22:38:15.807Z,98893.05
2019-03-03T22:40:49.176Z,98885.70
2019-03-03T22:43:22.506Z,98879.08
2019-03-03T22:45:55.959Z,98863.68
2019-03-03T22:48:29.312Z,98857.26
2019-03-03T22:51:02.708Z,98871.50
2019-03-03T22:53:36.094Z,98872.00
2019-03-03T22:56:09.473Z,98872.64
2019-03-03T22:58:42.812Z,98863.92
2019-03-03T23:01:18.831Z,98861.47
2019-03-03T23:04:01.158Z,98862.47
2019-03-03T23:06:40.260Z,98851.32
2019-03-03T23:09:16.787Z,98849.41
2019-03-03T23:12:02.239Z,98847.01
2019-03-03T23:14:53.559Z,98845.55
2019-03-03T23:17:35.626Z,98839.39
2019-03-03T23:20:34.448Z,98833.91
2019-03-03T23:23:19.903Z,98824.76
2019-03-03T23:25:53.902Z,98821.38
2019-03-03T23:28:27.475Z,98814.69
2019-03-03T23:31:00.925Z,98804.78
2019-03-03T23:33:34.366Z,98800.30
2019-03-03T23:36:07.726Z,98792.35
2019-03-03T23:38:41.190Z,98780.70
2019-03-03T23:41:14.883Z,98774.77
2019-03-03T23:43:48.327Z,98772.37
2019-03-03T23:46:21.827Z,98770.56
2019-03-03T23:48:55.318Z,98775.48
2019-03-03T23:51:28.841Z,98780.17
2019-03-03T23:54:02.340Z,98777.39
2019-03-03T23:56:35.724Z,98758.45
2019-03-03T23:59:09.125Z,98754.70
